createdAt,value
2017-10-06T00:00:22.584Z,10.80
2017-10-06T00:05:25.134Z,10.80
2017-10-06T00:10:27.699Z,10.70
2017-10-06T00:15:30.252Z,10.60
2017-10-06T00:20:32.811Z,10.60
2017-10-06T00:25:35.405Z,10.60
2017-10-06T00:30:37.970Z,10.50
2017-10-06T00:35:40.525Z,10.50
2017-10-06T00:40:43.078Z,10.50
2017-10-06T00:45:45.649Z,10.50
2017-10-06T00:50:48.208Z,10.50
2017-10-06T00:55:50.809Z,10.40
2017-10-06T01:00:53.358Z,10.40
2017-10-06T01:05:55.907Z,10.40
2017-10-06T01:10:58.451Z,10.40
2017-10-06T01:16:01.779Z,10.30
2017-10-06T01:21:04.330Z,10.30
2017-10-06T01:26:06.930Z,10.20
2017-10-06T01:31:09.502Z,10.20
2017-10-06T01:36:12.040Z,10.20
2017-10-06T01:41:14.615Z,10.10
2017-10-06T01:46:17.200Z,10.10
2017-10-06T01:51:19.763Z,10.10
2017-10-06T01:56:22.315Z,10.10
2017-10-06T02:01:24.885Z,10.10
2017-10-06T02:06:27.444Z,10.10
2017-10-06T02:11:30.000Z,10.10
2017-10-06T02:16:32.565Z,10.10
2017-10-06T02:21:35.891Z,10.10
2017-10-06T02:26:38.444Z,10.10
2017-10-06T02:31:40.994Z,10.10
2017-10-06T02:36:43.547Z,10.10
2017-10-06T02:41:46.100Z,10.10
2017-10-06T02:46:48.661Z,10.20
2017-10-06T02:51:51.228Z,10.20
2017-10-06T02:56:54.543Z,10.20
2017-10-06T03:01:57.096Z,10.20
2017-10-06T03:06:59.656Z,10.20
2017-10-06T03:12:02.247Z,10.20
2017-10-06T03:17:04.794Z,10.20
2017-10-06T03:22:07.343Z,10.20
2017-10-06T03:27:09.891Z,10.20
2017-10-06T03:32:12.495Z,10.20
2017-10-06T03:37:15.067Z,10.20
2017-10-06T03:42:17.607Z,10.20
2017-10-06T03:47:20.176Z,10.20
2017-10-06T03:52:22.739Z,10.20
2017-10-06T03:57:25.328Z,10.20
2017-10-06T04:02:27.875Z,10.20
2017-10-06T04:07:30.443Z,10.10
2017-10-06T04:12:33.023Z,10.10
2017-10-06T04:17:35.584Z,10.10
2017-10-06T04:22:38.168Z,10.10
2017-10-06T04:27:41.479Z,10.10
2017-10-06T04:32:44.835Z,10.00
2017-10-06T04:37:47.392Z,10.00
2017-10-06T04:42:49.979Z,10.00
2017-10-06T04:47:52.564Z,10.00
2017-10-06T04:52:55.121Z,10.00
2017-10-06T04:57:57.650Z,9.90
2017-10-06T05:03:00.220Z,9.80
2017-10-06T05:08:02.744Z,9.80
2017-10-06T05:13:05.308Z,9.70
2017-10-06T05:18:07.865Z,9.70
2017-10-06T05:23:10.411Z,9.70
2017-10-06T05:28:13.001Z,9.60
2017-10-06T05:33:15.551Z,9.60
2017-10-06T05:38:18.087Z,9.60
2017-10-06T05:43:20.642Z,9.60
2017-10-06T05:48:23.203Z,9.60
2017-10-06T05:53:25.746Z,9.50
2017-10-06T05:58:28.288Z,9.50
2017-10-06T06:03:30.857Z,9.50
2017-10-06T06:08:34.171Z,9.60
2017-10-06T06:13:36.736Z,9.60
2017-10-06T06:18:39.288Z,9.60
2017-10-06T06:23:41.866Z,9.60
2017-10-06T06:28:44.403Z,9.70
2017-10-06T06:33:46.974Z,9.70
2017-10-06T06:38:49.551Z,9.70
2017-10-06T06:43:52.116Z,9.90
2017-10-06T06:48:54.661Z,9.90
2017-10-06T06:53:57.233Z,9.90
2017-10-06T06:58:59.800Z,10.00
2017-10-06T07:04:02.375Z,10.00
2017-10-06T07:09:04.940Z,10.10
2017-10-06T07:14:07.495Z,10.20
2017-10-06T07:19:10.043Z,10.30
2017-10-06T07:24:12.599Z,10.40
2017-10-06T07:29:15.143Z,10.50
2017-10-06T07:34:17.706Z,10.60
2017-10-06T07:39:20.261Z,10.70
2017-10-06T07:44:22.851Z,10.90
2017-10-06T07:49:25.401Z,11.00
2017-10-06T07:54:28.004Z,11.10
2017-10-06T07:59:30.563Z,11.20
2017-10-06T08:04:33.146Z,11.30
2017-10-06T08:09:35.704Z,11.40
2017-10-06T08:14:38.247Z,11.50
2017-10-06T08:19:41.575Z,11.70
2017-10-06T08:24:44.160Z,11.70
2017-10-06T08:29:47.489Z,11.90
2017-10-06T08:34:50.032Z,11.90
2017-10-06T08:39:52.587Z,12.00
2017-10-06T08:44:55.169Z,12.10
2017-10-06T08:49:58.491Z,12.30
2017-10-06T08:55:01.084Z,12.30
2017-10-06T09:00:03.627Z,12.50
2017-10-06T09:05:06.215Z,12.50
2017-10-06T09:10:08.766Z,12.60
2017-10-06T09:15:11.314Z,12.60
2017-10-06T09:20:13.870Z,12.70
2017-10-06T09:25:16.420Z,12.70
2017-10-06T09:30:19.013Z,12.70
2017-10-06T09:35:21.557Z,12.70
2017-10-06T09:40:24.107Z,12.70
2017-10-06T09:45:26.669Z,12.70
2017-10-06T09:50:29.229Z,12.60
2017-10-06T09:55:31.772Z,12.60
2017-10-06T10:00:34.335Z,12.60
2017-10-06T10:05:36.918Z,12.60
2017-10-06T10:10:39.460Z,12.70
2017-10-06T10:15:42.008Z,12.80
2017-10-06T10:20:44.596Z,12.80
2017-10-06T10:25:47.190Z,12.90
2017-10-06T10:30:49.786Z,13.00
2017-10-06T10:35:52.320Z,13.00
2017-10-06T10:40:54.905Z,13.00
2017-10-06T10:45:57.467Z,13.10
2017-10-06T10:51:00.016Z,13.10
2017-10-06T10:56:02.577Z,13.10
2017-10-06T11:01:05.127Z,13.10
2017-10-06T11:06:07.716Z,13.20
2017-10-06T11:11:10.281Z,13.20
2017-10-06T11:16:12.840Z,13.20
2017-10-06T11:21:15.379Z,13.30
2017-10-06T11:26:17.918Z,13.20
2017-10-06T11:31:20.486Z,13.20
2017-10-06T11:36:23.064Z,13.30
2017-10-06T11:41:25.616Z,13.30
2017-10-06T11:46:28.167Z,13.30
2017-10-06T11:51:30.719Z,13.20
2017-10-06T11:56:33.301Z,13.20
2017-10-06T12:01:35.855Z,13.20
2017-10-06T12:06:38.414Z,13.10
2017-10-06T12:11:40.996Z,13.00
2017-10-06T12:16:43.576Z,12.90
2017-10-06T12:21:46.122Z,12.90
2017-10-06T12:26:48.675Z,12.80
2017-10-06T12:31:51.221Z,12.90
2017-10-06T12:36:53.758Z,13.00
2017-10-06T12:41:56.324Z,13.00
2017-10-06T12:46:58.871Z,13.10
2017-10-06T12:52:01.415Z,13.20
2017-10-06T12:57:03.993Z,13.30
2017-10-06T13:02:06.557Z,13.50
2017-10-06T13:07:09.108Z,13.70
2017-10-06T13:12:11.660Z,13.80
2017-10-06T13:17:14.273Z,13.90
2017-10-06T13:22:16.875Z,14.00
2017-10-06T13:27:19.467Z,14.10
2017-10-06T13:32:22.007Z,14.20
2017-10-06T13:37:24.604Z,14.40
2017-10-06T13:42:27.157Z,14.50
2017-10-06T13:47:29.723Z,14.60
2017-10-06T13:52:32.292Z,14.70
2017-10-06T13:57:34.855Z,14.80
2017-10-06T14:02:37.431Z,14.80
2017-10-06T14:07:40.770Z,14.80
2017-10-06T14:12:43.355Z,14.70
2017-10-06T14:17:45.899Z,14.70
2017-10-06T14:22:48.466Z,14.70
2017-10-06T14:27:51.027Z,14.60
2017-10-06T14:32:53.612Z,14.60
2017-10-06T14:37:56.188Z,14.40
2017-10-06T14:42:58.779Z,14.30
2017-10-06T14:48:01.347Z,14.30
2017-10-06T14:53:03.903Z,14.20
2017-10-06T14:58:06.463Z,14.10
2017-10-06T15:03:09.042Z,14.00
2017-10-06T15:08:11.618Z,13.90
2017-10-06T15:13:14.207Z,13.90
2017-10-06T15:18:16.793Z,13.80
2017-10-06T15:23:19.371Z,13.80
2017-10-06T15:28:21.931Z,13.70
2017-10-06T15:33:24.482Z,13.70
2017-10-06T15:38:27.071Z,13.70
2017-10-06T15:43:29.615Z,13.60
2017-10-06T15:48:32.184Z,13.50
2017-10-06T15:53:34.763Z,13.50
2017-10-06T15:58:37.339Z,13.40
2017-10-06T16:03:39.914Z,13.30
2017-10-06T16:08:43.257Z,13.20
2017-10-06T16:13:45.832Z,13.20
2017-10-06T16:18:48.504Z,13.10
2017-10-06T16:23:51.106Z,13.00
2017-10-06T16:28:53.656Z,12.90
2017-10-06T16:33:56.207Z,12.90
2017-10-06T16:38:58.771Z,12.80
2017-10-06T16:44:01.324Z,12.70
2017-10-06T16:49:03.886Z,12.60
2017-10-06T16:54:06.452Z,12.60
2017-10-06T16:59:09.026Z,12.50
2017-10-06T17:04:11.591Z,12.50
2017-10-06T17:09:14.144Z,12.40
2017-10-06T17:14:16.727Z,12.40
2017-10-06T17:19:19.344Z,12.20
2017-10-06T17:24:21.902Z,12.20
2017-10-06T17:29:24.456Z,12.20
2017-10-06T17:34:27.007Z,12.10
2017-10-06T17:39:29.563Z,12.10
2017-10-06T17:44:32.151Z,12.00
2017-10-06T17:49:34.733Z,12.00
2017-10-06T17:54:37.291Z,11.90
2017-10-06T17:59:40.635Z,11.80
2017-10-06T18:04:43.204Z,11.80
2017-10-06T18:09:45.798Z,11.80
2017-10-06T18:14:48.366Z,11.70
2017-10-06T18:19:50.927Z,11.70
2017-10-06T18:24:53.506Z,11.60
2017-10-06T18:29:56.868Z,11.50
2017-10-06T18:34:59.436Z,11.50
2017-10-06T18:40:02.767Z,11.50
2017-10-06T18:45:05.336Z,11.40
2017-10-06T18:50:07.953Z,11.40
2017-10-06T18:55:10.540Z,11.40
2017-10-06T19:00:13.147Z,11.30
2017-10-06T19:05:15.745Z,11.30
2017-10-06T19:10:18.331Z,11.30
2017-10-06T19:15:20.983Z,11.20
2017-10-06T19:20:23.548Z,11.20
2017-10-06T19:25:26.184Z,11.20
2017-10-06T19:30:28.782Z,11.10
2017-10-06T19:35:31.333Z,11.10
2017-10-06T19:40:33.916Z,11.10
2017-10-06T19:45:36.479Z,11.10
2017-10-06T19:50:39.063Z,11.00
2017-10-06T19:55:41.616Z,11.00
2017-10-06T20:00:44.217Z,11.00
2017-10-06T20:05:46.916Z,11.00
2017-10-06T20:10:49.486Z,11.00
2017-10-06T20:15:52.044Z,10.90
2017-10-06T20:20:54.623Z,10.90
2017-10-06T20:25:57.211Z,10.90
2017-10-06T20:30:59.782Z,10.90
2017-10-06T20:36:02.347Z,10.90
2017-10-06T20:41:04.903Z,10.80
2017-10-06T20:46:07.452Z,10.80
2017-10-06T20:51:09.987Z,10.80
2017-10-06T20:56:12.547Z,10.80
2017-10-06T21:01:15.125Z,10.80
2017-10-06T21:06:17.694Z,10.70
2017-10-06T21:11:20.308Z,10.70
2017-10-06T21:16:22.862Z,10.70
2017-10-06T21:21:25.412Z,10.70
2017-10-06T21:26:27.972Z,10.70
2017-10-06T21:31:30.533Z,10.60
2017-10-06T21:36:33.095Z,10.60
2017-10-06T21:41:35.648Z,10.60
2017-10-06T21:46:38.179Z,10.60
2017-10-06T21:51:40.752Z,10.60
2017-10-06T21:56:43.321Z,10.60
2017-10-06T22:01:45.884Z,10.60
2017-10-06T22:06:48.440Z,10.50
2017-10-06T22:11:51.049Z,10.50
2017-10-06T22:16:53.604Z,10.50
2017-10-06T22:21:56.183Z,10.50
2017-10-06T22:26:58.722Z,10.40
2017-10-06T22:32:02.063Z,10.40
2017-10-06T22:37:04.629Z,10.40
2017-10-06T22:42:07.216Z,10.40
2017-10-06T22:47:09.775Z,10.40
2017-10-06T22:52:12.333Z,10.30
2017-10-06T22:57:14.878Z,10.40
2017-10-06T23:02:17.422Z,10.30
2017-10-06T23:07:20.766Z,10.30
2017-10-06T23:12:23.314Z,10.30
2017-10-06T23:17:25.886Z,10.30
2017-10-06T23:22:28.439Z,10.30
2017-10-06T23:27:31.000Z,10.20
2017-10-06T23:32:33.556Z,10.20
2017-10-06T23:37:36.113Z,10.20
2017-10-06T23:42:38.660Z,10.10
2017-10-06T23:47:41.226Z,10.20
2017-10-06T23:52:43.798Z,10.10
2017-10-06T23:57:46.346Z,10.10
